Catàleg de serveis del Meteocat
Campanya meteocatpedra

Dades de l'estació automàtica Ulldecona - els Valentins

?
?
Resum diari 22:00 TU
Dades diàries de l'estació meteorològica
Temperatura mitjana 14.0 °C
Temperatura màxima 17.6 °C 11:43 TU
Temperatura mínima 12.1 °C 22:16 TU
Humitat relativa mitjana 78%
Precipitació acumulada 4.6 mm
Ratxa màxima del vent (2 m) 33.1 km/h - 106º 18:49 TU
Irradiació solar global 8.8 MJ/m2

El tram horari està expressat en Temps Universal (TU). Cal sumar una hora en horari d'hivern i dues en horari d'estiu per passar a l'hora oficial.

Ulldecona - els Valentins

Metadades estació meteorol´gica
Municipi Ulldecona
Comarca Montsià
Altitud 210 m
Data alta 15.11.1990
Estat actual Operativa
Dades de període
Període
TU
TM
°C
TX
°C
TN
°C
HRM
%
PPT
mm
VVM (2 m)
km/h
DVM (2 m)
graus
VVX (2 m)
km/h
RS
W/m2
00:00 - 00:30 13.1 13.1 13.0 92 0.0 3.2 34 9.0 0
00:30 - 01:00 13.1 13.1 13.1 91 0.0 2.5 29 7.6 0
01:00 - 01:30 13.2 13.2 13.1 91 0.0 3.2 26 9.0 0
01:30 - 02:00 13.1 13.1 13.0 92 0.0 3.6 33 11.2 0
02:00 - 02:30 13.1 13.1 13.0 91 0.0 5.0 28 14.4 0
02:30 - 03:00 12.9 13.0 12.8 92 0.0 5.8 32 17.6 0
03:00 - 03:30 12.8 12.9 12.8 92 0.0 4.3 35 14.0 0
03:30 - 04:00 12.9 12.9 12.9 91 0.0 4.7 30 14.8 0
04:00 - 04:30 12.8 12.9 12.8 89 0.0 4.3 39 15.5 0
04:30 - 05:00 12.8 12.8 12.8 88 0.0 3.6 37 12.2 0
05:00 - 05:30 12.7 12.7 12.7 87 0.0 5.0 28 15.5 1
05:30 - 06:00 12.7 12.7 12.7 86 0.0 5.4 31 15.1 15
06:00 - 06:30 12.8 12.8 12.7 86 0.0 5.0 17 13.3 31
06:30 - 07:00 12.7 12.8 12.6 85 0.0 4.3 359 20.2 18
07:00 - 07:30 12.8 13.0 12.6 85 0.0 4.3 26 13.7 72
07:30 - 08:00 13.0 13.1 12.9 83 0.0 7.6 20 20.2 98
08:00 - 08:30 13.1 13.5 13.0 81 0.0 7.6 28 27.0 130
08:30 - 09:00 13.7 13.9 13.5 76 0.0 6.8 37 19.8 202
09:00 - 09:30 13.9 14.1 13.7 74 0.0 7.2 40 21.6 220
09:30 - 10:00 14.0 14.3 13.7 74 0.0 6.1 42 22.7 192
10:00 - 10:30 14.2 14.4 14.1 72 0.0 6.1 51 24.1 222
10:30 - 11:00 14.6 14.9 14.4 71 0.0 7.6 40 24.1 313
11:00 - 11:30 15.6 16.7 14.9 65 0.0 7.6 40 22.3 516
11:30 - 12:00 17.0 17.6 16.3 56 0.0 7.6 51 22.0 691
12:00 - 12:30 16.7 17.3 16.3 55 0.0 7.6 58 27.7 441
12:30 - 13:00 16.4 16.8 16.1 58 0.0 7.2 45 29.5 388
13:00 - 13:30 16.7 17.4 16.2 61 0.0 6.5 51 27.0 397
13:30 - 14:00 16.0 16.2 15.8 64 0.0 8.3 51 24.8 307
14:00 - 14:30 15.9 16.1 15.4 65 0.0 9.4 42 30.2 247
14:30 - 15:00 15.3 15.5 15.0 68 0.0 9.0 42 28.8 149
15:00 - 15:30 15.0 15.1 14.9 68 0.0 6.5 51 21.6 59
15:30 - 16:00 14.9 14.9 14.7 68 0.0 8.3 43 32.4 61
16:00 - 16:30 14.7 14.8 14.7 70 0.0 6.1 48 22.3 47
16:30 - 17:00 14.7 14.7 14.5 71 0.0 5.8 60 23.0 39
17:00 - 17:30 14.5 14.6 14.4 73 0.0 5.8 68 28.8 18
17:30 - 18:00 14.3 14.4 14.2 75 0.0 6.5 65 27.4 8
18:00 - 18:30 14.0 14.1 13.9 78 0.0 7.2 52 28.8 4
18:30 - 19:00 13.9 14.0 13.8 79 0.0 6.8 75 33.1 0
19:00 - 19:30 13.9 14.0 13.9 77 0.0 8.6 83 31.7 0
19:30 - 20:00 13.9 13.9 13.9 78 0.0 6.5 70 25.2 0
20:00 - 20:30 13.8 13.9 13.7 79 0.0 5.8 65 22.3 0
20:30 - 21:00 13.7 13.7 13.6 79 0.0 5.4 67 19.8 0
21:00 - 21:30 13.6 13.7 13.5 79 0.0 5.8 76 29.9 0
21:30 - 22:00 13.1 13.5 12.3 85 1.5 5.0 74 23.0 0
22:00 - 22:30 12.1 12.2 12.1 95 3.1 4.7 55 25.2 0

Les dades en taronja només han passat un control de qualitat automàtic. Resta pendent la seva validació definitiva.